sensor_id;sensor_type;location;lat;lon;timestamp;P1;durP1;ratioP1;P2;durP2;ratioP2
7432;SDS011;32233;49.500;7.764;2023-02-07T00:01:13;11.60;;;6.73;;
7432;SDS011;32233;49.500;7.764;2023-02-07T00:03:41;8.20;;;5.60;;
7432;SDS011;32233;49.500;7.764;2023-02-07T00:06:10;24.83;;;12.70;;
7432;SDS011;32233;49.500;7.764;2023-02-07T00:08:38;16.93;;;10.43;;
7432;SDS011;32233;49.500;7.764;2023-02-07T00:11:06;6.27;;;5.10;;
7432;SDS011;32233;49.500;7.764;2023-02-07T00:13:36;16.57;;;9.03;;
7432;SDS011;32233;49.500;7.764;2023-02-07T00:16:03;18.63;;;11.90;;
7432;SDS011;32233;49.500;7.764;2023-02-07T00:18:31;7.53;;;5.40;;
7432;SDS011;32233;49.500;7.764;2023-02-07T00:20:58;21.30;;;12.23;;
7432;SDS011;32233;49.500;7.764;2023-02-07T00:23:26;8.00;;;5.07;;
7432;SDS011;32233;49.500;7.764;2023-02-07T00:25:53;14.80;;;7.73;;
7432;SDS011;32233;49.500;7.764;2023-02-07T00:28:19;11.40;;;6.73;;
7432;SDS011;32233;49.500;7.764;2023-02-07T00:30:46;16.97;;;9.97;;
7432;SDS011;32233;49.500;7.764;2023-02-07T00:33:13;13.30;;;6.80;;
7432;SDS011;32233;49.500;7.764;2023-02-07T00:35:41;17.50;;;10.00;;
7432;SDS011;32233;49.500;7.764;2023-02-07T00:38:08;21.77;;;12.30;;
7432;SDS011;32233;49.500;7.764;2023-02-07T00:40:34;7.20;;;5.03;;
7432;SDS011;32233;49.500;7.764;2023-02-07T00:43:01;8.47;;;5.37;;
7432;SDS011;32233;49.500;7.764;2023-02-07T00:45:27;14.97;;;9.57;;
7432;SDS011;32233;49.500;7.764;2023-02-07T00:47:54;11.60;;;7.73;;
7432;SDS011;32233;49.500;7.764;2023-02-07T00:50:20;6.63;;;4.80;;
7432;SDS011;32233;49.500;7.764;2023-02-07T00:52:46;5.80;;;4.30;;
7432;SDS011;32233;49.500;7.764;2023-02-07T00:55:13;5.27;;;4.20;;
7432;SDS011;32233;49.500;7.764;2023-02-07T00:57:39;12.33;;;6.20;;
7432;SDS011;32233;49.500;7.764;2023-02-07T01:00:06;7.23;;;3.30;;
7432;SDS011;32233;49.500;7.764;2023-02-07T01:02:34;8.43;;;5.73;;
7432;SDS011;32233;49.500;7.764;2023-02-07T01:05:01;8.17;;;5.10;;
7432;SDS011;32233;49.500;7.764;2023-02-07T01:07:27;7.83;;;4.40;;
7432;SDS011;32233;49.500;7.764;2023-02-07T01:09:54;6.70;;;4.77;;
7432;SDS011;32233;49.500;7.764;2023-02-07T01:12:20;4.83;;;3.80;;
7432;SDS011;32233;49.500;7.764;2023-02-07T01:14:47;6.87;;;4.00;;
7432;SDS011;32233;49.500;7.764;2023-02-07T01:17:13;4.53;;;3.37;;
7432;SDS011;32233;49.500;7.764;2023-02-07T01:19:40;5.20;;;3.70;;
7432;SDS011;32233;49.500;7.764;2023-02-07T01:22:07;5.17;;;3.80;;
7432;SDS011;32233;49.500;7.764;2023-02-07T01:24:33;6.47;;;4.20;;
7432;SDS011;32233;49.500;7.764;2023-02-07T01:27:00;4.40;;;3.17;;
7432;SDS011;32233;49.500;7.764;2023-02-07T01:29:27;6.27;;;3.80;;
7432;SDS011;32233;49.500;7.764;2023-02-07T01:31:54;5.80;;;4.20;;
7432;SDS011;32233;49.500;7.764;2023-02-07T01:34:20;7.33;;;4.80;;
7432;SDS011;32233;49.500;7.764;2023-02-07T01:36:47;5.00;;;3.80;;
7432;SDS011;32233;49.500;7.764;2023-02-07T01:39:13;4.13;;;3.57;;
7432;SDS011;32233;49.500;7.764;2023-02-07T01:41:40;3.50;;;3.20;;
7432;SDS011;32233;49.500;7.764;2023-02-07T01:44:07;10.57;;;5.63;;
7432;SDS011;32233;49.500;7.764;2023-02-07T01:46:53;5.50;;;3.90;;
7432;SDS011;32233;49.500;7.764;2023-02-07T01:49:23;7.27;;;4.53;;
7432;SDS011;32233;49.500;7.764;2023-02-07T01:51:53;5.20;;;3.70;;
7432;SDS011;32233;49.500;7.764;2023-02-07T01:54:22;9.90;;;5.60;;
7432;SDS011;32233;49.500;7.764;2023-02-07T01:56:54;10.17;;;6.00;;
7432;SDS011;32233;49.500;7.764;2023-02-07T01:59:24;15.17;;;7.80;;
7432;SDS011;32233;49.500;7.764;2023-02-07T02:01:52;10.57;;;6.57;;
7432;SDS011;32233;49.500;7.764;2023-02-07T02:04:20;9.07;;;6.33;;
7432;SDS011;32233;49.500;7.764;2023-02-07T02:06:47;9.23;;;6.17;;
7432;SDS011;32233;49.500;7.764;2023-02-07T02:09:15;5.63;;;4.60;;
7432;SDS011;32233;49.500;7.764;2023-02-07T02:14:57;6.57;;;4.00;;
7432;SDS011;32233;49.500;7.764;2023-02-07T02:23:11;4.70;;;3.67;;
7432;SDS011;32233;49.500;7.764;2023-02-07T02:34:15;6.17;;;3.97;;
7432;SDS011;32233;49.500;7.764;2023-02-07T02:42:18;5.87;;;4.50;;
7432;SDS011;32233;49.500;7.764;2023-02-07T02:47:34;5.43;;;4.33;;
7432;SDS011;32233;49.500;7.764;2023-02-07T02:50:02;5.53;;;4.20;;
7432;SDS011;32233;49.500;7.764;2023-02-07T02:52:29;4.80;;;4.10;;
7432;SDS011;32233;49.500;7.764;2023-02-07T02:55:15;7.40;;;4.43;;
7432;SDS011;32233;49.500;7.764;2023-02-07T02:58:00;5.37;;;4.13;;
7432;SDS011;32233;49.500;7.764;2023-02-07T03:00:47;7.30;;;3.93;;
7432;SDS011;32233;49.500;7.764;2023-02-07T03:11:43;5.93;;;4.17;;
7432;SDS011;32233;49.500;7.764;2023-02-07T03:14:42;4.73;;;4.27;;
7432;SDS011;32233;49.500;7.764;2023-02-07T03:17:13;5.80;;;4.30;;
7432;SDS011;32233;49.500;7.764;2023-02-07T03:19:48;4.80;;;4.30;;
7432;SDS011;32233;49.500;7.764;2023-02-07T03:22:37;6.40;;;4.50;;
7432;SDS011;32233;49.500;7.764;2023-02-07T03:25:05;6.30;;;4.67;;
7432;SDS011;32233;49.500;7.764;2023-02-07T03:27:33;5.70;;;4.57;;
7432;SDS011;32233;49.500;7.764;2023-02-07T03:30:04;6.77;;;5.13;;
7432;SDS011;32233;49.500;7.764;2023-02-07T03:32:36;6.17;;;4.70;;
7432;SDS011;32233;49.500;7.764;2023-02-07T03:37:40;6.63;;;4.77;;
7432;SDS011;32233;49.500;7.764;2023-02-07T03:40:09;8.60;;;5.30;;
7432;SDS011;32233;49.500;7.764;2023-02-07T03:42:53;6.33;;;4.87;;
7432;SDS011;32233;49.500;7.764;2023-02-07T03:45:24;5.57;;;4.77;;
7432;SDS011;32233;49.500;7.764;2023-02-07T03:47:51;5.83;;;4.77;;
7432;SDS011;32233;49.500;7.764;2023-02-07T03:50:18;7.23;;;4.80;;
7432;SDS011;32233;49.500;7.764;2023-02-07T03:52:44;7.17;;;5.00;;
7432;SDS011;32233;49.500;7.764;2023-02-07T03:55:11;6.70;;;5.13;;
7432;SDS011;32233;49.500;7.764;2023-02-07T03:57:37;7.10;;;4.53;;
7432;SDS011;32233;49.500;7.764;2023-02-07T04:00:04;7.27;;;5.03;;
7432;SDS011;32233;49.500;7.764;2023-02-07T04:02:37;7.47;;;4.87;;
7432;SDS011;32233;49.500;7.764;2023-02-07T04:05:04;6.07;;;4.80;;
7432;SDS011;32233;49.500;7.764;2023-02-07T04:07:31;7.50;;;5.57;;
7432;SDS011;32233;49.500;7.764;2023-02-07T04:09:57;7.03;;;5.13;;
7432;SDS011;32233;49.500;7.764;2023-02-07T04:12:24;7.23;;;4.80;;
7432;SDS011;32233;49.500;7.764;2023-02-07T04:14:51;8.83;;;5.43;;
7432;SDS011;32233;49.500;7.764;2023-02-07T04:17:17;8.87;;;5.30;;
7432;SDS011;32233;49.500;7.764;2023-02-07T04:19:44;6.07;;;4.77;;
7432;SDS011;32233;49.500;7.764;2023-02-07T04:22:12;6.03;;;4.70;;
7432;SDS011;32233;49.500;7.764;2023-02-07T04:24:39;6.53;;;5.00;;
7432;SDS011;32233;49.500;7.764;2023-02-07T04:27:05;7.77;;;4.87;;
7432;SDS011;32233;49.500;7.764;2023-02-07T04:29:32;7.23;;;4.77;;
7432;SDS011;32233;49.500;7.764;2023-02-07T04:31:58;8.57;;;4.73;;
7432;SDS011;32233;49.500;7.764;2023-02-07T04:34:25;8.30;;;4.97;;
7432;SDS011;32233;49.500;7.764;2023-02-07T04:36:51;8.13;;;4.80;;
7432;SDS011;32233;49.500;7.764;2023-02-07T04:39:18;6.67;;;5.37;;
7432;SDS011;32233;49.500;7.764;2023-02-07T04:41:44;6.60;;;4.73;;
7432;SDS011;32233;49.500;7.764;2023-02-07T04:44:11;7.47;;;5.13;;
7432;SDS011;32233;49.500;7.764;2023-02-07T04:46:38;7.70;;;5.03;;
7432;SDS011;32233;49.500;7.764;2023-02-07T04:49:04;8.50;;;5.30;;
7432;SDS011;32233;49.500;7.764;2023-02-07T04:51:31;9.07;;;5.07;;
7432;SDS011;32233;49.500;7.764;2023-02-07T04:53:58;8.27;;;4.93;;
7432;SDS011;32233;49.500;7.764;2023-02-07T04:56:25;7.37;;;5.20;;
7432;SDS011;32233;49.500;7.764;2023-02-07T04:58:51;9.17;;;5.87;;
7432;SDS011;32233;49.500;7.764;2023-02-07T05:01:18;10.13;;;6.30;;
7432;SDS011;32233;49.500;7.764;2023-02-07T05:03:44;9.17;;;5.80;;
7432;SDS011;32233;49.500;7.764;2023-02-07T05:06:11;8.80;;;6.10;;
7432;SDS011;32233;49.500;7.764;2023-02-07T05:08:38;10.13;;;5.93;;
7432;SDS011;32233;49.500;7.764;2023-02-07T05:11:05;10.60;;;6.10;;
7432;SDS011;32233;49.500;7.764;2023-02-07T05:13:31;9.30;;;6.00;;
7432;SDS011;32233;49.500;7.764;2023-02-07T05:16:00;11.73;;;6.60;;
7432;SDS011;32233;49.500;7.764;2023-02-07T05:18:28;9.77;;;6.20;;
7432;SDS011;32233;49.500;7.764;2023-02-07T05:20:54;9.10;;;6.30;;
7432;SDS011;32233;49.500;7.764;2023-02-07T05:23:21;9.77;;;5.80;;
7432;SDS011;32233;49.500;7.764;2023-02-07T05:25:48;10.60;;;6.27;;
7432;SDS011;32233;49.500;7.764;2023-02-07T05:28:14;11.47;;;6.80;;
7432;SDS011;32233;49.500;7.764;2023-02-07T05:30:41;10.33;;;6.83;;
7432;SDS011;32233;49.500;7.764;2023-02-07T05:33:08;8.93;;;6.10;;
7432;SDS011;32233;49.500;7.764;2023-02-07T05:35:36;12.43;;;6.70;;
7432;SDS011;32233;49.500;7.764;2023-02-07T05:38:06;9.87;;;6.50;;
7432;SDS011;32233;49.500;7.764;2023-02-07T05:40:36;10.97;;;7.13;;
7432;SDS011;32233;49.500;7.764;2023-02-07T05:43:04;11.60;;;7.00;;
7432;SDS011;32233;49.500;7.764;2023-02-07T05:45:31;10.70;;;6.57;;
7432;SDS011;32233;49.500;7.764;2023-02-07T05:47:58;11.87;;;7.10;;
7432;SDS011;32233;49.500;7.764;2023-02-07T05:50:25;9.47;;;6.33;;
7432;SDS011;32233;49.500;7.764;2023-02-07T05:53:03;13.30;;;6.93;;
7432;SDS011;32233;49.500;7.764;2023-02-07T05:55:30;11.97;;;6.73;;
7432;SDS011;32233;49.500;7.764;2023-02-07T05:57:57;11.40;;;6.87;;
7432;SDS011;32233;49.500;7.764;2023-02-07T06:00:23;11.10;;;6.93;;
7432;SDS011;32233;49.500;7.764;2023-02-07T06:02:50;10.03;;;6.73;;
7432;SDS011;32233;49.500;7.764;2023-02-07T06:05:17;11.03;;;6.93;;
7432;SDS011;32233;49.500;7.764;2023-02-07T06:07:49;14.57;;;7.10;;
7432;SDS011;32233;49.500;7.764;2023-02-07T06:10:16;11.97;;;7.07;;
7432;SDS011;32233;49.500;7.764;2023-02-07T06:12:43;10.37;;;6.87;;
7432;SDS011;32233;49.500;7.764;2023-02-07T06:15:09;11.10;;;6.90;;
7432;SDS011;32233;49.500;7.764;2023-02-07T06:17:36;11.13;;;6.80;;
7432;SDS011;32233;49.500;7.764;2023-02-07T06:20:02;10.93;;;6.70;;
7432;SDS011;32233;49.500;7.764;2023-02-07T06:22:29;11.77;;;7.03;;
7432;SDS011;32233;49.500;7.764;2023-02-07T06:24:56;10.87;;;7.30;;
7432;SDS011;32233;49.500;7.764;2023-02-07T06:27:22;11.43;;;7.10;;
7432;SDS011;32233;49.500;7.764;2023-02-07T06:29:49;11.77;;;7.63;;
7432;SDS011;32233;49.500;7.764;2023-02-07T06:32:15;12.07;;;8.10;;
7432;SDS011;32233;49.500;7.764;2023-02-07T06:34:42;10.07;;;7.33;;
7432;SDS011;32233;49.500;7.764;2023-02-07T06:37:08;13.57;;;8.00;;
7432;SDS011;32233;49.500;7.764;2023-02-07T06:39:35;12.67;;;7.60;;
7432;SDS011;32233;49.500;7.764;2023-02-07T06:42:01;11.90;;;8.30;;
7432;SDS011;32233;49.500;7.764;2023-02-07T06:44:28;12.37;;;7.47;;
7432;SDS011;32233;49.500;7.764;2023-02-07T06:46:54;13.27;;;8.37;;
7432;SDS011;32233;49.500;7.764;2023-02-07T06:49:21;10.90;;;7.20;;
7432;SDS011;32233;49.500;7.764;2023-02-07T06:51:47;13.70;;;7.23;;
7432;SDS011;32233;49.500;7.764;2023-02-07T06:54:14;15.00;;;8.20;;
7432;SDS011;32233;49.500;7.764;2023-02-07T06:56:41;14.03;;;8.13;;
7432;SDS011;32233;49.500;7.764;2023-02-07T06:59:07;11.60;;;7.77;;
7432;SDS011;32233;49.500;7.764;2023-02-07T07:01:34;13.77;;;8.50;;
7432;SDS011;32233;49.500;7.764;2023-02-07T07:04:00;14.47;;;8.97;;
7432;SDS011;32233;49.500;7.764;2023-02-07T07:06:27;14.80;;;9.00;;
7432;SDS011;32233;49.500;7.764;2023-02-07T07:08:53;16.63;;;9.10;;
7432;SDS011;32233;49.500;7.764;2023-02-07T07:11:20;14.00;;;8.73;;
7432;SDS011;32233;49.500;7.764;2023-02-07T07:13:46;13.67;;;8.70;;
7432;SDS011;32233;49.500;7.764;2023-02-07T07:16:13;14.00;;;8.03;;
7432;SDS011;32233;49.500;7.764;2023-02-07T07:18:39;13.63;;;8.70;;
7432;SDS011;32233;49.500;7.764;2023-02-07T07:21:07;14.80;;;8.67;;
7432;SDS011;32233;49.500;7.764;2023-02-07T07:23:34;14.97;;;9.00;;
7432;SDS011;32233;49.500;7.764;2023-02-07T07:26:01;18.23;;;9.37;;
7432;SDS011;32233;49.500;7.764;2023-02-07T07:28:27;16.97;;;9.37;;
7432;SDS011;32233;49.500;7.764;2023-02-07T07:30:54;15.23;;;8.97;;
7432;SDS011;32233;49.500;7.764;2023-02-07T07:33:26;13.50;;;8.70;;
7432;SDS011;32233;49.500;7.764;2023-02-07T07:35:56;17.17;;;9.87;;
7432;SDS011;32233;49.500;7.764;2023-02-07T07:38:26;17.13;;;9.57;;
7432;SDS011;32233;49.500;7.764;2023-02-07T07:40:53;16.27;;;9.67;;
7432;SDS011;32233;49.500;7.764;2023-02-07T07:43:19;15.70;;;9.97;;
7432;SDS011;32233;49.500;7.764;2023-02-07T07:45:51;17.33;;;9.63;;
7432;SDS011;32233;49.500;7.764;2023-02-07T07:48:19;16.00;;;9.43;;
7432;SDS011;32233;49.500;7.764;2023-02-07T07:50:47;15.63;;;9.63;;
7432;SDS011;32233;49.500;7.764;2023-02-07T07:53:14;15.17;;;9.23;;
7432;SDS011;32233;49.500;7.764;2023-02-07T07:55:41;19.00;;;9.77;;
7432;SDS011;32233;49.500;7.764;2023-02-07T07:58:08;17.57;;;9.87;;
7432;SDS011;32233;49.500;7.764;2023-02-07T08:00:34;15.67;;;9.40;;
7432;SDS011;32233;49.500;7.764;2023-02-07T08:03:01;15.37;;;10.00;;
7432;SDS011;32233;49.500;7.764;2023-02-07T08:05:27;22.23;;;11.43;;
7432;SDS011;32233;49.500;7.764;2023-02-07T08:07:54;21.53;;;11.10;;
7432;SDS011;32233;49.500;7.764;2023-02-07T08:10:20;15.77;;;10.10;;
7432;SDS011;32233;49.500;7.764;2023-02-07T08:12:46;16.47;;;9.87;;
7432;SDS011;32233;49.500;7.764;2023-02-07T08:15:13;17.60;;;9.13;;
7432;SDS011;32233;49.500;7.764;2023-02-07T08:17:39;17.93;;;9.80;;
7432;SDS011;32233;49.500;7.764;2023-02-07T08:20:06;18.00;;;10.57;;
7432;SDS011;32233;49.500;7.764;2023-02-07T08:22:33;18.40;;;10.63;;
7432;SDS011;32233;49.500;7.764;2023-02-07T08:25:00;21.33;;;10.33;;
7432;SDS011;32233;49.500;7.764;2023-02-07T08:27:26;15.33;;;10.13;;
7432;SDS011;32233;49.500;7.764;2023-02-07T08:29:53;14.97;;;9.90;;
7432;SDS011;32233;49.500;7.764;2023-02-07T08:32:19;15.93;;;10.23;;
7432;SDS011;32233;49.500;7.764;2023-02-07T08:34:45;16.10;;;10.00;;
7432;SDS011;32233;49.500;7.764;2023-02-07T08:37:12;18.57;;;10.93;;
7432;SDS011;32233;49.500;7.764;2023-02-07T08:39:39;15.03;;;9.60;;
7432;SDS011;32233;49.500;7.764;2023-02-07T08:42:05;17.70;;;10.43;;
7432;SDS011;32233;49.500;7.764;2023-02-07T08:44:33;16.73;;;10.10;;
7432;SDS011;32233;49.500;7.764;2023-02-07T08:47:01;17.40;;;9.67;;
7432;SDS011;32233;49.500;7.764;2023-02-07T08:49:28;14.90;;;9.80;;
7432;SDS011;32233;49.500;7.764;2023-02-07T08:51:55;14.83;;;9.70;;
7432;SDS011;32233;49.500;7.764;2023-02-07T08:54:21;17.47;;;10.20;;
7432;SDS011;32233;49.500;7.764;2023-02-07T08:56:48;15.67;;;10.37;;
7432;SDS011;32233;49.500;7.764;2023-02-07T08:59:14;15.10;;;9.93;;
7432;SDS011;32233;49.500;7.764;2023-02-07T09:01:41;15.07;;;10.67;;
7432;SDS011;32233;49.500;7.764;2023-02-07T09:04:07;17.33;;;9.77;;
7432;SDS011;32233;49.500;7.764;2023-02-07T09:06:36;14.77;;;9.57;;
7432;SDS011;32233;49.500;7.764;2023-02-07T09:09:03;17.93;;;10.70;;
7432;SDS011;32233;49.500;7.764;2023-02-07T09:11:31;19.33;;;11.40;;
7432;SDS011;32233;49.500;7.764;2023-02-07T09:13:57;16.97;;;11.30;;
7432;SDS011;32233;49.500;7.764;2023-02-07T09:16:24;18.87;;;11.97;;
7432;SDS011;32233;49.500;7.764;2023-02-07T09:18:50;21.63;;;12.37;;
7432;SDS011;32233;49.500;7.764;2023-02-07T09:21:17;22.53;;;13.80;;
7432;SDS011;32233;49.500;7.764;2023-02-07T09:23:44;21.43;;;12.63;;
7432;SDS011;32233;49.500;7.764;2023-02-07T09:26:16;17.90;;;11.73;;
7432;SDS011;32233;49.500;7.764;2023-02-07T09:28:44;18.90;;;12.53;;
7432;SDS011;32233;49.500;7.764;2023-02-07T09:31:11;24.87;;;12.57;;
7432;SDS011;32233;49.500;7.764;2023-02-07T09:33:39;20.13;;;11.93;;
7432;SDS011;32233;49.500;7.764;2023-02-07T09:36:16;17.93;;;12.13;;
7432;SDS011;32233;49.500;7.764;2023-02-07T09:38:50;19.57;;;12.53;;
7432;SDS011;32233;49.500;7.764;2023-02-07T09:46:20;16.63;;;11.33;;
7432;SDS011;32233;49.500;7.764;2023-02-07T09:49:35;17.07;;;11.20;;
7432;SDS011;32233;49.500;7.764;2023-02-07T09:51:57;15.90;;;10.80;;
7432;SDS011;32233;49.500;7.764;2023-02-07T09:54:40;15.87;;;10.90;;
7432;SDS011;32233;49.500;7.764;2023-02-07T09:57:13;15.50;;;11.13;;
7432;SDS011;32233;49.500;7.764;2023-02-07T10:02:32;13.37;;;10.07;;
7432;SDS011;32233;49.500;7.764;2023-02-07T10:05:05;13.33;;;10.00;;
7432;SDS011;32233;49.500;7.764;2023-02-07T10:07:45;13.87;;;11.03;;
7432;SDS011;32233;49.500;7.764;2023-02-07T10:10:14;14.37;;;10.67;;
7432;SDS011;32233;49.500;7.764;2023-02-07T10:12:51;13.80;;;10.33;;
7432;SDS011;32233;49.500;7.764;2023-02-07T10:15:33;16.17;;;10.90;;
7432;SDS011;32233;49.500;7.764;2023-02-07T10:18:19;13.37;;;9.97;;
7432;SDS011;32233;49.500;7.764;2023-02-07T10:23:57;18.90;;;11.33;;
7432;SDS011;32233;49.500;7.764;2023-02-07T10:26:53;12.87;;;10.43;;
7432;SDS011;32233;49.500;7.764;2023-02-07T10:29:44;13.97;;;11.20;;
7432;SDS011;32233;49.500;7.764;2023-02-07T10:32:21;13.47;;;10.47;;
7432;SDS011;32233;49.500;7.764;2023-02-07T10:34:54;13.07;;;10.67;;
7432;SDS011;32233;49.500;7.764;2023-02-07T10:37:30;14.93;;;10.77;;
7432;SDS011;32233;49.500;7.764;2023-02-07T10:43:11;14.57;;;10.60;;
7432;SDS011;32233;49.500;7.764;2023-02-07T10:45:42;14.53;;;10.70;;
7432;SDS011;32233;49.500;7.764;2023-02-07T10:48:13;14.30;;;10.43;;
7432;SDS011;32233;49.500;7.764;2023-02-07T10:50:40;13.90;;;10.27;;
7432;SDS011;32233;49.500;7.764;2023-02-07T10:53:08;14.03;;;10.70;;
7432;SDS011;32233;49.500;7.764;2023-02-07T10:55:41;13.67;;;10.13;;
7432;SDS011;32233;49.500;7.764;2023-02-07T10:58:15;12.37;;;10.00;;
7432;SDS011;32233;49.500;7.764;2023-02-07T11:00:50;14.87;;;10.50;;
7432;SDS011;32233;49.500;7.764;2023-02-07T11:03:22;12.53;;;10.63;;
7432;SDS011;32233;49.500;7.764;2023-02-07T11:08:18;13.90;;;10.10;;
7432;SDS011;32233;49.500;7.764;2023-02-07T11:10:56;15.10;;;10.60;;
7432;SDS011;32233;49.500;7.764;2023-02-07T11:13:25;11.53;;;9.50;;
7432;SDS011;32233;49.500;7.764;2023-02-07T11:16:04;13.73;;;10.20;;
7432;SDS011;32233;49.500;7.764;2023-02-07T11:18:34;11.73;;;9.57;;
7432;SDS011;32233;49.500;7.764;2023-02-07T11:21:05;14.93;;;10.07;;
7432;SDS011;32233;49.500;7.764;2023-02-07T11:23:45;13.27;;;10.00;;
7432;SDS011;32233;49.500;7.764;2023-02-07T11:26:13;13.20;;;10.27;;
7432;SDS011;32233;49.500;7.764;2023-02-07T11:28:41;12.27;;;9.43;;
7432;SDS011;32233;49.500;7.764;2023-02-07T11:31:09;12.30;;;9.60;;
7432;SDS011;32233;49.500;7.764;2023-02-07T11:33:41;12.80;;;9.77;;
7432;SDS011;32233;49.500;7.764;2023-02-07T11:38:57;12.73;;;9.83;;
7432;SDS011;32233;49.500;7.764;2023-02-07T11:43:54;12.23;;;9.23;;
7432;SDS011;32233;49.500;7.764;2023-02-07T11:46:42;11.43;;;9.10;;
7432;SDS011;32233;49.500;7.764;2023-02-07T11:49:19;12.87;;;10.10;;
7432;SDS011;32233;49.500;7.764;2023-02-07T11:51:51;12.60;;;9.47;;
7432;SDS011;32233;49.500;7.764;2023-02-07T11:54:25;12.13;;;9.83;;
7432;SDS011;32233;49.500;7.764;2023-02-07T11:56:58;12.80;;;9.57;;
7432;SDS011;32233;49.500;7.764;2023-02-07T11:59:28;11.47;;;8.67;;
7432;SDS011;32233;49.500;7.764;2023-02-07T12:01:59;11.57;;;9.27;;
7432;SDS011;32233;49.500;7.764;2023-02-07T12:04:36;11.97;;;9.20;;
7432;SDS011;32233;49.500;7.764;2023-02-07T12:07:05;12.63;;;9.67;;
7432;SDS011;32233;49.500;7.764;2023-02-07T12:09:39;11.33;;;8.97;;
7432;SDS011;32233;49.500;7.764;2023-02-07T12:12:12;9.57;;;8.30;;
7432;SDS011;32233;49.500;7.764;2023-02-07T12:14:53;12.43;;;9.27;;
7432;SDS011;32233;49.500;7.764;2023-02-07T12:17:28;12.17;;;9.53;;
7432;SDS011;32233;49.500;7.764;2023-02-07T12:20:03;14.37;;;10.27;;
7432;SDS011;32233;49.500;7.764;2023-02-07T12:22:40;15.67;;;10.57;;
7432;SDS011;32233;49.500;7.764;2023-02-07T12:25:28;11.13;;;9.17;;
7432;SDS011;32233;49.500;7.764;2023-02-07T12:28:04;12.10;;;9.80;;
7432;SDS011;32233;49.500;7.764;2023-02-07T12:30:52;14.83;;;9.87;;
7432;SDS011;32233;49.500;7.764;2023-02-07T12:33:37;14.63;;;9.93;;
7432;SDS011;32233;49.500;7.764;2023-02-07T12:36:54;13.53;;;9.50;;
7432;SDS011;32233;49.500;7.764;2023-02-07T12:41:37;13.67;;;10.33;;
7432;SDS011;32233;49.500;7.764;2023-02-07T12:49:31;13.47;;;9.63;;
7432;SDS011;32233;49.500;7.764;2023-02-07T12:57:53;12.80;;;9.47;;
7432;SDS011;32233;49.500;7.764;2023-02-07T13:08:57;15.73;;;10.07;;
7432;SDS011;32233;49.500;7.764;2023-02-07T13:17:48;14.50;;;9.97;;
7432;SDS011;32233;49.500;7.764;2023-02-07T13:23:17;15.20;;;9.70;;
7432;SDS011;32233;49.500;7.764;2023-02-07T13:25:51;14.20;;;9.73;;
7432;SDS011;32233;49.500;7.764;2023-02-07T13:28:25;16.23;;;9.40;;
7432;SDS011;32233;49.500;7.764;2023-02-07T13:30:57;13.73;;;9.20;;
7432;SDS011;32233;49.500;7.764;2023-02-07T13:41:22;12.93;;;8.90;;
7432;SDS011;32233;49.500;7.764;2023-02-07T13:44:07;13.53;;;9.37;;
7432;SDS011;32233;49.500;7.764;2023-02-07T13:52:08;16.43;;;10.00;;
7432;SDS011;32233;49.500;7.764;2023-02-07T13:54:41;12.90;;;9.43;;
7432;SDS011;32233;49.500;7.764;2023-02-07T13:57:19;12.60;;;9.13;;
7432;SDS011;32233;49.500;7.764;2023-02-07T14:00:20;12.93;;;8.63;;
7432;SDS011;32233;49.500;7.764;2023-02-07T14:02:59;13.77;;;9.33;;
7432;SDS011;32233;49.500;7.764;2023-02-07T14:05:30;14.77;;;9.53;;
7432;SDS011;32233;49.500;7.764;2023-02-07T14:08:00;15.47;;;9.73;;
7432;SDS011;32233;49.500;7.764;2023-02-07T14:13:03;15.67;;;9.70;;
7432;SDS011;32233;49.500;7.764;2023-02-07T14:17:58;17.27;;;9.03;;
7432;SDS011;32233;49.500;7.764;2023-02-07T14:23:22;16.07;;;10.07;;
7432;SDS011;32233;49.500;7.764;2023-02-07T14:25:48;17.27;;;10.70;;
7432;SDS011;32233;49.500;7.764;2023-02-07T14:28:28;13.30;;;9.53;;
7432;SDS011;32233;49.500;7.764;2023-02-07T14:30:58;15.83;;;9.87;;
7432;SDS011;32233;49.500;7.764;2023-02-07T14:33:37;14.57;;;10.47;;
7432;SDS011;32233;49.500;7.764;2023-02-07T14:38:43;15.53;;;9.90;;
7432;SDS011;32233;49.500;7.764;2023-02-07T14:41:30;16.97;;;10.90;;
7432;SDS011;32233;49.500;7.764;2023-02-07T14:44:00;14.33;;;10.23;;
7432;SDS011;32233;49.500;7.764;2023-02-07T14:46:45;14.73;;;9.33;;
7432;SDS011;32233;49.500;7.764;2023-02-07T14:49:20;12.07;;;9.27;;
7432;SDS011;32233;49.500;7.764;2023-02-07T14:52:10;13.37;;;8.77;;
7432;SDS011;32233;49.500;7.764;2023-02-07T14:54:44;14.40;;;9.47;;
7432;SDS011;32233;49.500;7.764;2023-02-07T14:57:27;14.57;;;9.77;;
7432;SDS011;32233;49.500;7.764;2023-02-07T15:02:41;13.77;;;9.57;;
7432;SDS011;32233;49.500;7.764;2023-02-07T15:05:27;13.80;;;9.47;;
7432;SDS011;32233;49.500;7.764;2023-02-07T15:07:55;13.57;;;9.50;;
7432;SDS011;32233;49.500;7.764;2023-02-07T15:10:38;13.53;;;9.43;;
7432;SDS011;32233;49.500;7.764;2023-02-07T15:13:17;13.70;;;9.20;;
7432;SDS011;32233;49.500;7.764;2023-02-07T15:15:50;14.77;;;10.07;;
7432;SDS011;32233;49.500;7.764;2023-02-07T15:18:20;16.23;;;9.57;;
7432;SDS011;32233;49.500;7.764;2023-02-07T15:20:52;14.73;;;9.37;;
7432;SDS011;32233;49.500;7.764;2023-02-07T15:23:25;16.43;;;10.03;;
7432;SDS011;32233;49.500;7.764;2023-02-07T15:25:54;12.90;;;9.07;;
7432;SDS011;32233;49.500;7.764;2023-02-07T15:28:23;15.77;;;8.93;;
7432;SDS011;32233;49.500;7.764;2023-02-07T15:31:13;14.13;;;9.03;;
7432;SDS011;32233;49.500;7.764;2023-02-07T15:33:48;14.57;;;9.20;;
7432;SDS011;32233;49.500;7.764;2023-02-07T15:38:52;18.50;;;10.50;;
7432;SDS011;32233;49.500;7.764;2023-02-07T15:41:19;16.43;;;10.70;;
7432;SDS011;32233;49.500;7.764;2023-02-07T15:43:58;15.40;;;10.33;;
7432;SDS011;32233;49.500;7.764;2023-02-07T15:46:41;16.40;;;9.93;;
7432;SDS011;32233;49.500;7.764;2023-02-07T15:49:09;16.43;;;10.57;;
7432;SDS011;32233;49.500;7.764;2023-02-07T15:51:48;15.30;;;9.93;;
7432;SDS011;32233;49.500;7.764;2023-02-07T15:54:15;16.70;;;10.73;;
7432;SDS011;32233;49.500;7.764;2023-02-07T15:56:47;18.20;;;10.17;;
7432;SDS011;32233;49.500;7.764;2023-02-07T15:59:18;15.80;;;9.70;;
7432;SDS011;32233;49.500;7.764;2023-02-07T16:01:50;16.03;;;10.53;;
7432;SDS011;32233;49.500;7.764;2023-02-07T16:04:22;15.83;;;10.50;;
7432;SDS011;32233;49.500;7.764;2023-02-07T16:06:54;16.27;;;9.53;;
7432;SDS011;32233;49.500;7.764;2023-02-07T16:09:37;16.90;;;10.40;;
7432;SDS011;32233;49.500;7.764;2023-02-07T16:17:47;15.70;;;9.77;;
7432;SDS011;32233;49.500;7.764;2023-02-07T16:20:14;16.33;;;10.37;;
7432;SDS011;32233;49.500;7.764;2023-02-07T16:22:42;17.13;;;10.40;;
7432;SDS011;32233;49.500;7.764;2023-02-07T16:25:17;16.97;;;11.10;;
7432;SDS011;32233;49.500;7.764;2023-02-07T16:27:47;14.83;;;9.80;;
7432;SDS011;32233;49.500;7.764;2023-02-07T16:30:17;14.80;;;10.50;;
7432;SDS011;32233;49.500;7.764;2023-02-07T16:32:47;15.13;;;10.30;;
7432;SDS011;32233;49.500;7.764;2023-02-07T16:35:21;17.87;;;10.80;;
7432;SDS011;32233;49.500;7.764;2023-02-07T16:37:50;18.73;;;10.80;;
7432;SDS011;32233;49.500;7.764;2023-02-07T16:40:17;16.60;;;10.53;;
7432;SDS011;32233;49.500;7.764;2023-02-07T16:42:44;16.17;;;10.37;;
7432;SDS011;32233;49.500;7.764;2023-02-07T16:45:16;16.13;;;10.40;;
7432;SDS011;32233;49.500;7.764;2023-02-07T16:47:45;17.60;;;10.20;;
7432;SDS011;32233;49.500;7.764;2023-02-07T16:50:12;16.67;;;10.10;;
7432;SDS011;32233;49.500;7.764;2023-02-07T16:52:44;15.80;;;10.00;;
7432;SDS011;32233;49.500;7.764;2023-02-07T16:55:11;16.93;;;9.90;;
7432;SDS011;32233;49.500;7.764;2023-02-07T16:57:38;14.87;;;9.87;;
7432;SDS011;32233;49.500;7.764;2023-02-07T17:00:07;18.03;;;10.10;;
7432;SDS011;32233;49.500;7.764;2023-02-07T17:02:35;18.87;;;10.57;;
7432;SDS011;32233;49.500;7.764;2023-02-07T17:05:02;16.20;;;10.37;;
7432;SDS011;32233;49.500;7.764;2023-02-07T17:07:28;16.40;;;9.97;;
7432;SDS011;32233;49.500;7.764;2023-02-07T17:09:55;19.60;;;10.67;;
7432;SDS011;32233;49.500;7.764;2023-02-07T17:12:23;18.03;;;10.30;;